< < Back
Terminal Aerodrome Forecast


Current Version              Previous Versions:   1  2  3  4  5  6  7  8  9  

Terminal Aerodrome Forecast

641
FTUS42 KFFC 231725
TAFPDK
TAF
KPDK 231725Z 2318/2418 12009G17KT P6SM SKC
     FM240100 00000KT P6SM SKC
     FM241500 11006KT P6SM SCT035=

Latest METAR

723
SAUS70 KWBC 241300 RRO
MTRPDK
METAR KPDK 241253Z 12004KT 8SM FEW027 SCT036 BKN048 20/16 A3036 RMK AO2
SLP270 T02000156


USA.gov is the U.S. government's official web portal to all federal, state and local government web resources and services.